createdAt,value
2018-03-28T00:00:34.125Z,8.38
2018-03-28T00:03:01.639Z,10.77
2018-03-28T00:05:29.469Z,12.50
2018-03-28T00:07:56.988Z,13.38
2018-03-28T00:10:24.832Z,11.65
2018-03-28T00:12:52.346Z,11.40
2018-03-28T00:15:19.858Z,11.38
2018-03-28T00:17:47.396Z,11.30
2018-03-28T00:20:14.910Z,13.25
2018-03-28T00:22:42.463Z,11.05
2018-03-28T00:25:09.977Z,13.43
2018-03-28T00:27:37.496Z,11.65
2018-03-28T00:30:05.984Z,11.12
2018-03-28T00:32:33.510Z,11.60
2018-03-28T00:35:01.305Z,13.25
2018-03-28T00:37:28.837Z,12.65
2018-03-28T00:39:56.354Z,13.40
2018-03-28T00:42:24.933Z,11.82
2018-03-28T00:44:52.459Z,12.80
2018-03-28T00:47:20.212Z,13.35
2018-03-28T00:49:47.738Z,12.13
2018-03-28T00:52:15.259Z,12.98
2018-03-28T00:54:42.806Z,11.15
2018-03-28T00:57:10.329Z,13.15
2018-03-28T00:59:38.250Z,11.52
2018-03-28T01:02:05.777Z,10.32
2018-03-28T01:04:33.299Z,13.23
2018-03-28T01:07:00.833Z,8.88
2018-03-28T01:09:28.342Z,12.07
2018-03-28T01:11:56.007Z,11.27
2018-03-28T01:14:23.526Z,10.65
2018-03-28T01:16:51.045Z,10.35
2018-03-28T01:19:18.584Z,9.63
2018-03-28T01:21:46.097Z,9.73
2018-03-28T01:24:14.317Z,9.75
2018-03-28T01:26:41.835Z,8.70
2018-03-28T01:29:09.343Z,9.60
2018-03-28T01:31:36.911Z,7.43
2018-03-28T01:34:05.394Z,8.60
2018-03-28T01:36:33.237Z,8.82
2018-03-28T01:39:01.112Z,7.75
2018-03-28T01:41:28.620Z,9.15
2018-03-28T01:43:56.167Z,8.43
2018-03-28T01:46:24.522Z,8.13
2018-03-28T01:48:52.270Z,6.68
2018-03-28T01:51:19.773Z,8.40
2018-03-28T01:53:47.301Z,7.85
2018-03-28T01:56:14.832Z,8.57
2018-03-28T01:58:42.348Z,6.00
2018-03-28T02:01:10.062Z,7.15
2018-03-28T02:03:37.570Z,5.60
2018-03-28T02:06:05.073Z,7.90
2018-03-28T02:08:32.614Z,6.65
2018-03-28T02:11:01.037Z,7.50
2018-03-28T02:13:28.670Z,6.65
2018-03-28T02:15:56.211Z,8.77
2018-03-28T02:18:23.730Z,7.55
2018-03-28T02:20:51.261Z,7.32
2018-03-28T02:23:18.828Z,6.45
2018-03-28T02:25:47.624Z,6.30
2018-03-28T02:28:15.133Z,6.87
2018-03-28T02:30:42.642Z,6.90
2018-03-28T02:33:10.178Z,6.00
2018-03-28T02:35:37.677Z,5.87
2018-03-28T02:38:05.483Z,4.90
2018-03-28T02:40:32.993Z,5.62
2018-03-28T02:43:00.502Z,4.65
2018-03-28T02:45:28.044Z,4.90
2018-03-28T02:47:56.554Z,4.80
2018-03-28T02:50:24.211Z,4.22
2018-03-28T02:52:51.724Z,4.43
2018-03-28T02:55:19.233Z,3.95
2018-03-28T02:57:47.650Z,3.70
2018-03-28T03:00:15.163Z,3.60
2018-03-28T03:02:43.085Z,3.20
2018-03-28T03:05:11.086Z,3.17
2018-03-28T03:07:38.596Z,3.20
2018-03-28T03:10:06.137Z,3.62
2018-03-28T03:12:33.674Z,3.08
2018-03-28T03:15:01.640Z,3.22
2018-03-28T03:17:29.145Z,2.50
2018-03-28T03:19:57.611Z,2.55
2018-03-28T03:22:25.138Z,1.73
2018-03-28T03:24:52.657Z,2.90
2018-03-28T03:27:21.212Z,3.10
2018-03-28T03:29:48.709Z,3.58
2018-03-28T03:32:17.149Z,3.50
2018-03-28T03:34:44.684Z,3.67
2018-03-28T03:37:12.194Z,4.07
2018-03-28T03:39:39.738Z,3.45
2018-03-28T03:42:07.249Z,3.40
2018-03-28T03:44:34.769Z,3.47
2018-03-28T03:47:02.302Z,3.67
2018-03-28T03:49:29.805Z,3.08
2018-03-28T03:51:57.603Z,3.90
2018-03-28T03:54:25.118Z,3.78
2018-03-28T03:56:52.621Z,3.17
2018-03-28T03:59:20.153Z,4.00
2018-03-28T04:01:47.686Z,3.33
2018-03-28T04:04:15.309Z,3.92
2018-03-28T04:06:42.826Z,3.22
2018-03-28T04:09:10.338Z,3.72
2018-03-28T04:11:37.879Z,3.50
2018-03-28T04:14:05.390Z,4.25
2018-03-28T04:16:32.930Z,3.70
2018-03-28T04:19:00.442Z,4.50
2018-03-28T04:21:27.954Z,3.78
2018-03-28T04:23:55.551Z,4.03
2018-03-28T04:26:23.038Z,4.40
2018-03-28T04:28:50.591Z,4.37
2018-03-28T04:31:18.097Z,5.12
2018-03-28T04:33:45.614Z,4.53
2018-03-28T04:36:13.156Z,4.62
2018-03-28T04:38:40.683Z,4.40
2018-03-28T04:41:08.271Z,7.15
2018-03-28T04:43:35.798Z,5.00
2018-03-28T04:46:03.317Z,5.97
2018-03-28T04:48:30.860Z,6.28
2018-03-28T04:50:58.371Z,6.30
2018-03-28T04:53:26.281Z,6.25
2018-03-28T04:55:53.814Z,7.53
2018-03-28T04:58:21.329Z,7.72
2018-03-28T05:00:48.865Z,5.32
2018-03-28T05:03:16.386Z,6.82
2018-03-28T05:05:44.078Z,6.35
2018-03-28T05:08:11.598Z,8.43
2018-03-28T05:10:39.134Z,6.25
2018-03-28T05:13:06.678Z,6.75
2018-03-28T05:15:34.229Z,7.37
2018-03-28T05:18:01.970Z,6.62
2018-03-28T05:20:29.485Z,6.50
2018-03-28T05:22:56.998Z,7.05
2018-03-28T05:25:24.549Z,6.85
2018-03-28T05:27:52.065Z,6.47
2018-03-28T05:30:19.791Z,8.25
2018-03-28T05:32:47.306Z,6.18
2018-03-28T05:35:14.816Z,4.68
2018-03-28T05:37:42.402Z,7.32
2018-03-28T05:40:09.894Z,6.93
2018-03-28T05:42:37.662Z,5.55
2018-03-28T05:45:05.190Z,6.80
2018-03-28T05:47:33.217Z,7.15
2018-03-28T05:50:00.764Z,6.85
2018-03-28T05:52:29.155Z,6.72
2018-03-28T05:54:56.704Z,6.62
2018-03-28T05:57:24.222Z,7.07
2018-03-28T05:59:52.242Z,6.78
2018-03-28T06:02:19.781Z,6.62
2018-03-28T06:04:47.669Z,6.35
2018-03-28T06:07:15.240Z,6.05
2018-03-28T06:09:42.755Z,6.45
2018-03-28T06:12:10.268Z,6.82
2018-03-28T06:14:37.802Z,5.40
2018-03-28T06:17:05.322Z,6.80
2018-03-28T06:19:33.018Z,6.15
2018-03-28T06:22:00.535Z,5.53
2018-03-28T06:24:28.064Z,6.62
2018-03-28T06:26:55.595Z,5.78
2018-03-28T06:29:23.106Z,5.95
2018-03-28T06:31:50.923Z,6.53
2018-03-28T06:34:18.440Z,6.18
2018-03-28T06:36:46.547Z,6.60
2018-03-28T06:39:14.421Z,7.12
2018-03-28T06:41:42.550Z,6.85
2018-03-28T06:44:10.672Z,6.15
2018-03-28T06:46:38.842Z,6.25
2018-03-28T06:49:06.444Z,5.40
2018-03-28T06:51:34.105Z,6.37
2018-03-28T06:54:02.729Z,7.85
2018-03-28T06:56:30.378Z,6.93
2018-03-28T06:58:58.224Z,6.00
2018-03-28T07:01:27.179Z,6.22
2018-03-28T07:03:55.061Z,6.47
2018-03-28T07:06:22.899Z,6.10
2018-03-28T07:08:50.662Z,6.60
2018-03-28T07:11:19.005Z,7.78
2018-03-28T07:13:46.806Z,6.30
2018-03-28T07:16:14.550Z,5.70
2018-03-28T07:18:42.437Z,6.15
2018-03-28T07:21:10.181Z,5.47
2018-03-28T07:23:37.702Z,5.22
2018-03-28T07:26:05.215Z,6.47
2018-03-28T07:28:32.761Z,5.93
2018-03-28T07:31:00.272Z,5.95
2018-03-28T07:33:27.971Z,5.30
2018-03-28T07:35:55.511Z,6.05
2018-03-28T07:38:23.050Z,6.35
2018-03-28T07:40:50.637Z,6.37
2018-03-28T07:43:18.178Z,4.87
2018-03-28T07:45:45.876Z,4.70
2018-03-28T07:48:13.389Z,4.55
2018-03-28T07:50:40.910Z,5.30
2018-03-28T07:53:08.454Z,6.37
2018-03-28T07:55:36.596Z,5.03
2018-03-28T07:58:04.138Z,3.70
2018-03-28T08:00:31.678Z,5.03
2018-03-28T08:02:59.195Z,4.95
2018-03-28T08:05:26.736Z,4.47
2018-03-28T08:07:54.258Z,4.55
2018-03-28T08:10:21.812Z,5.35
2018-03-28T08:12:49.334Z,4.70
2018-03-28T08:15:17.312Z,5.07
2018-03-28T08:17:45.028Z,4.72
2018-03-28T08:20:12.545Z,4.75
2018-03-28T08:22:40.309Z,4.43
2018-03-28T08:25:07.834Z,4.70
2018-03-28T08:27:35.363Z,4.57
2018-03-28T08:30:02.901Z,5.40
2018-03-28T08:32:30.425Z,4.62
2018-03-28T08:34:57.965Z,4.95
2018-03-28T08:37:25.474Z,3.55
2018-03-28T08:39:52.996Z,5.57
2018-03-28T08:42:20.539Z,3.60
2018-03-28T08:44:48.062Z,5.57
2018-03-28T08:47:15.771Z,5.78
2018-03-28T08:49:43.295Z,6.57
2018-03-28T08:52:10.827Z,5.90
2018-03-28T08:54:38.402Z,6.43
2018-03-28T08:57:05.925Z,5.93
2018-03-28T08:59:33.682Z,5.65
2018-03-28T09:02:01.213Z,7.15
2018-03-28T09:04:28.745Z,6.05
2018-03-28T09:06:56.293Z,6.40
2018-03-28T09:09:23.818Z,6.37
2018-03-28T09:11:51.580Z,7.68
2018-03-28T09:14:19.106Z,6.03
2018-03-28T09:16:46.631Z,5.78
2018-03-28T09:19:14.254Z,5.05
2018-03-28T09:21:41.739Z,4.70
2018-03-28T09:24:09.390Z,4.07
2018-03-28T09:26:36.908Z,4.07
2018-03-28T09:29:04.434Z,4.30
2018-03-28T09:31:31.981Z,5.77
2018-03-28T09:33:59.494Z,3.57
2018-03-28T09:36:27.040Z,3.67
2018-03-28T09:38:54.558Z,3.77
2018-03-28T09:41:22.071Z,2.40
2018-03-28T09:43:49.665Z,2.33
2018-03-28T09:46:17.178Z,1.70
2018-03-28T09:48:44.724Z,1.30
2018-03-28T09:51:12.236Z,1.40
2018-03-28T09:53:39.743Z,1.50
2018-03-28T09:56:07.588Z,1.40
2018-03-28T09:58:35.126Z,1.60
2018-03-28T10:01:08.549Z,1.80
2018-03-28T10:03:41.578Z,1.50
2018-03-28T10:06:09.138Z,1.10
2018-03-28T10:08:36.719Z,1.07
2018-03-28T10:11:04.396Z,1.67
2018-03-28T10:13:32.253Z,1.33
2018-03-28T10:16:00.026Z,0.70
2018-03-28T10:18:27.711Z,0.50
2018-03-28T10:20:55.694Z,1.30
2018-03-28T10:23:23.237Z,1.03
2018-03-28T10:25:50.780Z,1.13
2018-03-28T10:28:18.326Z,1.23
2018-03-28T10:30:47.114Z,1.10
2018-03-28T10:33:14.661Z,1.03
2018-03-28T10:35:42.540Z,0.90
2018-03-28T10:38:10.204Z,1.00
2018-03-28T10:40:38.072Z,1.07
2018-03-28T10:43:05.751Z,0.87
2018-03-28T10:45:33.323Z,0.80
2018-03-28T10:48:00.833Z,1.30
2018-03-28T10:50:28.377Z,0.70
2018-03-28T10:52:56.150Z,1.13
2018-03-28T10:55:23.937Z,0.70
2018-03-28T10:57:51.906Z,1.10
2018-03-28T11:00:19.479Z,0.50
2018-03-28T11:02:47.291Z,0.60
2018-03-28T11:05:15.158Z,0.50
2018-03-28T11:07:43.415Z,0.90
2018-03-28T11:10:12.264Z,0.70
2018-03-28T11:12:40.088Z,0.60
2018-03-28T11:15:07.696Z,0.70
2018-03-28T11:17:35.232Z,0.60
2018-03-28T11:20:02.800Z,0.60
2018-03-28T11:22:30.469Z,0.70
2018-03-28T11:24:58.336Z,0.80
2018-03-28T11:27:25.957Z,0.70
2018-03-28T11:29:53.481Z,0.60
2018-03-28T11:32:21.073Z,0.90
2018-03-28T11:34:48.626Z,0.77
2018-03-28T11:37:16.142Z,0.70
2018-03-28T11:39:43.700Z,1.03
2018-03-28T11:42:11.412Z,0.80
2018-03-28T11:44:39.015Z,0.93
2018-03-28T11:47:06.559Z,0.70
2018-03-28T11:49:34.073Z,1.03
2018-03-28T11:52:01.795Z,0.63
2018-03-28T11:54:29.352Z,0.97
2018-03-28T11:56:57.908Z,1.40
2018-03-28T11:59:25.466Z,1.67
2018-03-28T12:01:52.977Z,1.33
2018-03-28T12:04:20.557Z,1.57
2018-03-28T12:06:48.071Z,1.43
2018-03-28T12:09:15.632Z,1.00
2018-03-28T12:11:43.228Z,1.53
2018-03-28T12:14:10.751Z,1.60
2018-03-28T12:16:38.294Z,2.40
2018-03-28T12:19:05.886Z,1.33
2018-03-28T12:21:34.349Z,1.73
2018-03-28T12:24:02.216Z,1.20
2018-03-28T12:26:29.815Z,1.67
2018-03-28T12:28:57.889Z,1.40
2018-03-28T12:31:25.402Z,1.70
2018-03-28T12:33:52.985Z,1.77
2018-03-28T12:36:20.497Z,1.80
2018-03-28T12:38:48.078Z,1.50
2018-03-28T12:41:15.673Z,1.97
2018-03-28T12:43:43.191Z,1.43
2018-03-28T12:46:11.067Z,1.27
2018-03-28T12:48:38.832Z,2.10
2018-03-28T12:51:06.625Z,1.43
2018-03-28T12:53:34.552Z,1.33
2018-03-28T12:56:02.333Z,1.90
2018-03-28T12:58:29.933Z,1.90
2018-03-28T13:00:57.473Z,1.50
2018-03-28T13:03:24.994Z,1.50
2018-03-28T13:05:52.618Z,1.17
2018-03-28T13:08:21.093Z,1.57
2018-03-28T13:10:48.637Z,1.33
2018-03-28T13:13:16.179Z,2.20
2018-03-28T13:15:43.716Z,1.40
2018-03-28T13:18:11.273Z,0.97
2018-03-28T13:20:38.778Z,1.50
2018-03-28T13:23:06.322Z,1.20
2018-03-28T13:25:33.843Z,1.10
2018-03-28T13:28:01.372Z,1.47
2018-03-28T13:30:28.940Z,0.70
2018-03-28T13:32:56.457Z,1.30
2018-03-28T13:35:24.508Z,1.13
2018-03-28T13:37:52.033Z,0.83
2018-03-28T13:40:19.541Z,0.60
2018-03-28T13:42:47.080Z,0.70
2018-03-28T13:45:14.581Z,0.63
2018-03-28T13:47:42.770Z,0.70
2018-03-28T13:50:10.313Z,0.60
2018-03-28T13:52:37.838Z,0.70
2018-03-28T13:55:05.431Z,0.67
2018-03-28T13:57:32.950Z,0.50
2018-03-28T14:00:00.717Z,0.70
2018-03-28T14:02:28.237Z,0.53
2018-03-28T14:04:55.937Z,0.80
2018-03-28T14:07:23.598Z,0.87
2018-03-28T14:09:51.140Z,0.67
2018-03-28T14:12:19.227Z,0.75
2018-03-28T14:14:47.058Z,1.02
2018-03-28T14:17:15.453Z,0.80
2018-03-28T14:19:43.136Z,0.62
2018-03-28T14:22:10.683Z,0.60
2018-03-28T14:24:38.462Z,0.50
2018-03-28T14:27:05.996Z,0.60
2018-03-28T14:29:33.529Z,0.65
2018-03-28T14:32:01.397Z,0.60
2018-03-28T14:34:28.967Z,0.70
2018-03-28T14:36:56.918Z,0.85
2018-03-28T14:39:24.737Z,0.90
2018-03-28T14:41:52.393Z,0.85
2018-03-28T14:44:20.265Z,1.50
2018-03-28T14:46:47.826Z,0.95
2018-03-28T14:49:15.591Z,0.98
2018-03-28T14:51:43.209Z,1.20
2018-03-28T14:54:11.117Z,1.02
2018-03-28T14:56:39.718Z,1.05
2018-03-28T14:59:07.567Z,1.27
2018-03-28T15:01:35.714Z,1.02
2018-03-28T15:04:03.505Z,1.02
2018-03-28T15:06:31.053Z,1.00
2018-03-28T15:08:58.727Z,1.37
2018-03-28T15:11:26.272Z,1.30
2018-03-28T15:13:54.051Z,1.23
2018-03-28T15:16:21.654Z,1.40
2018-03-28T15:18:49.377Z,1.50
2018-03-28T15:21:16.972Z,2.70
2018-03-28T15:23:44.877Z,1.60
2018-03-28T15:26:12.647Z,1.35
2018-03-28T15:28:40.236Z,2.25
2018-03-28T15:31:08.627Z,1.17
2018-03-28T15:33:36.894Z,1.25
2018-03-28T15:36:05.114Z,1.80
2018-03-28T15:38:33.348Z,1.25
2018-03-28T15:41:01.093Z,0.98
2018-03-28T15:43:28.857Z,3.65
2018-03-28T15:45:56.737Z,1.30
2018-03-28T15:48:24.590Z,1.75
2018-03-28T15:50:52.874Z,1.58
2018-03-28T15:53:20.639Z,1.75
2018-03-28T15:55:48.615Z,1.90
2018-03-28T15:58:16.465Z,1.60
2018-03-28T16:00:44.646Z,1.62
2018-03-28T16:03:12.870Z,1.40
2018-03-28T16:05:40.781Z,1.25
2018-03-28T16:08:08.397Z,1.50
2018-03-28T16:10:36.310Z,1.25
2018-03-28T16:13:04.074Z,1.40
2018-03-28T16:15:32.142Z,1.40
2018-03-28T16:18:00.114Z,1.60
2018-03-28T16:20:27.981Z,1.33
2018-03-28T16:22:56.154Z,1.20
2018-03-28T16:25:24.340Z,1.48
2018-03-28T16:27:52.913Z,1.17
2018-03-28T16:30:20.850Z,1.35
2018-03-28T16:32:48.747Z,1.62
2018-03-28T16:35:16.717Z,1.08
2018-03-28T16:37:44.582Z,1.05
2018-03-28T16:40:12.553Z,1.33
2018-03-28T16:42:41.136Z,1.08
2018-03-28T16:45:08.957Z,0.88
2018-03-28T16:47:36.860Z,1.42
2018-03-28T16:50:05.453Z,0.80
2018-03-28T16:52:34.037Z,1.70
2018-03-28T16:55:01.940Z,1.50
2018-03-28T16:57:29.943Z,1.85
2018-03-28T16:59:57.908Z,1.37
2018-03-28T17:02:26.115Z,1.37
2018-03-28T17:04:55.034Z,0.90
2018-03-28T17:07:22.848Z,1.00
2018-03-28T17:09:50.642Z,1.25
2018-03-28T17:12:18.466Z,1.15
2018-03-28T17:14:46.267Z,0.80
2018-03-28T17:17:14.851Z,1.00
2018-03-28T17:19:42.716Z,0.80
2018-03-28T17:22:11.200Z,0.90
2018-03-28T17:24:38.961Z,1.00
2018-03-28T17:27:06.771Z,0.60
2018-03-28T17:29:34.796Z,0.60
2018-03-28T17:32:02.663Z,0.80
2018-03-28T17:34:30.940Z,0.70
2018-03-28T17:36:58.830Z,0.98
2018-03-28T17:39:27.651Z,0.60
2018-03-28T17:41:55.873Z,0.70
2018-03-28T17:44:24.556Z,0.50
2018-03-28T17:46:52.424Z,0.62
2018-03-28T17:49:20.290Z,0.70
2018-03-28T17:51:48.156Z,0.40
2018-03-28T17:54:16.124Z,1.40
2018-03-28T17:56:43.995Z,1.00
2018-03-28T17:59:11.834Z,1.15
2018-03-28T18:01:39.726Z,0.60
2018-03-28T18:04:07.590Z,0.60
2018-03-28T18:06:35.460Z,0.75
2018-03-28T18:09:03.276Z,0.93
2018-03-28T18:11:31.088Z,3.08
2018-03-28T18:13:58.954Z,3.15
2018-03-28T18:16:26.821Z,2.80
2018-03-28T18:18:54.892Z,1.20
2018-03-28T18:21:22.717Z,0.70
2018-03-28T18:23:50.420Z,0.68
2018-03-28T18:26:18.288Z,0.80
2018-03-28T18:28:46.054Z,2.20
2018-03-28T18:31:14.430Z,1.15
2018-03-28T18:33:42.402Z,1.10
2018-03-28T18:36:10.462Z,1.65
2018-03-28T18:38:38.402Z,1.17
2018-03-28T18:41:06.306Z,0.80
2018-03-28T18:43:34.285Z,0.70
2018-03-28T18:46:02.450Z,0.60
2018-03-28T18:48:30.594Z,0.55
2018-03-28T18:50:58.591Z,0.90
2018-03-28T18:53:26.458Z,0.50
2018-03-28T18:55:54.530Z,0.50
2018-03-28T18:58:22.611Z,0.40
2018-03-28T19:00:50.953Z,0.62
2018-03-28T19:03:20.529Z,0.47
2018-03-28T19:05:48.453Z,0.80
2018-03-28T19:08:16.496Z,0.50
2018-03-28T19:10:44.492Z,0.82
2018-03-28T19:13:12.510Z,0.60
2018-03-28T19:15:41.354Z,0.85
2018-03-28T19:18:09.321Z,1.15
2018-03-28T19:20:38.112Z,0.80
2018-03-28T19:23:05.980Z,0.60
2018-03-28T19:25:34.493Z,0.88
2018-03-28T19:28:02.835Z,0.60
2018-03-28T19:30:30.804Z,0.93
2018-03-28T19:32:58.877Z,1.08
2018-03-28T19:35:27.048Z,0.73
2018-03-28T19:37:54.915Z,0.75
2018-03-28T19:40:22.968Z,0.90
2018-03-28T19:42:52.086Z,0.88
2018-03-28T19:45:20.101Z,0.70
2018-03-28T19:47:49.150Z,0.60
2018-03-28T19:50:16.988Z,0.82
2018-03-28T19:52:45.453Z,0.80
2018-03-28T19:55:13.467Z,0.75
2018-03-28T19:57:42.271Z,1.10
2018-03-28T20:00:09.551Z,0.93
2018-03-28T20:02:37.443Z,0.75
2018-03-28T20:05:07.307Z,0.90
2018-03-28T20:07:35.269Z,0.70
2018-03-28T20:10:03.632Z,0.70
2018-03-28T20:12:31.604Z,0.60
2018-03-28T20:14:59.571Z,0.88
2018-03-28T20:17:27.544Z,0.70
2018-03-28T20:19:55.713Z,0.85
2018-03-28T20:22:23.990Z,1.23
2018-03-28T20:24:51.823Z,1.20
2018-03-28T20:27:20.239Z,1.00
2018-03-28T20:29:48.207Z,0.88
2018-03-28T20:32:16.071Z,0.90
2018-03-28T20:34:44.215Z,0.60
2018-03-28T20:37:12.623Z,1.08
2018-03-28T20:39:40.490Z,0.80
2018-03-28T20:42:08.460Z,0.98
2018-03-28T20:44:36.282Z,0.90
2018-03-28T20:47:04.503Z,1.08
2018-03-28T20:49:32.467Z,1.58
2018-03-28T20:52:00.232Z,1.20
2018-03-28T20:54:28.200Z,1.37
2018-03-28T20:56:55.980Z,1.55
2018-03-28T20:59:24.106Z,1.55
2018-03-28T21:01:52.314Z,1.35
2018-03-28T21:04:20.141Z,1.70
2018-03-28T21:06:48.672Z,1.42
2018-03-28T21:09:16.629Z,1.40
2018-03-28T21:11:44.803Z,1.77
2018-03-28T21:14:13.389Z,1.90
2018-03-28T21:16:41.225Z,2.20
2018-03-28T21:19:09.118Z,2.00
2018-03-28T21:21:37.558Z,2.05
2018-03-28T21:24:06.899Z,2.25
2018-03-28T21:26:34.868Z,2.20
2018-03-28T21:29:02.736Z,2.15
2018-03-28T21:31:30.707Z,1.80
2018-03-28T21:33:58.569Z,2.20
2018-03-28T21:36:26.768Z,2.55
2018-03-28T21:38:54.507Z,2.42
2018-03-28T21:41:22.377Z,2.00
2018-03-28T21:43:50.453Z,2.50
2018-03-28T21:46:18.451Z,2.15
2018-03-28T21:48:46.793Z,2.10
2018-03-28T21:51:14.564Z,2.97
2018-03-28T21:53:42.423Z,2.47
2018-03-28T21:56:10.291Z,2.70
2018-03-28T21:58:38.572Z,3.58
2018-03-28T22:01:06.246Z,3.65
2018-03-28T22:03:33.893Z,3.90
2018-03-28T22:06:01.654Z,3.33
2018-03-28T22:08:29.308Z,2.78
2018-03-28T22:10:56.857Z,3.40
2018-03-28T22:13:24.542Z,3.22
2018-03-28T22:15:52.057Z,3.80
2018-03-28T22:18:19.583Z,2.70
2018-03-28T22:20:47.215Z,2.50
2018-03-28T22:23:14.846Z,2.80
2018-03-28T22:25:42.725Z,2.33
2018-03-28T22:28:10.234Z,2.80
2018-03-28T22:30:40.649Z,2.75
2018-03-28T22:33:08.342Z,2.25
2018-03-28T22:35:36.036Z,2.60
2018-03-28T22:38:03.977Z,2.50
2018-03-28T22:40:31.506Z,2.87
2018-03-28T22:42:59.043Z,2.42
2018-03-28T22:45:26.851Z,2.50
2018-03-28T22:47:54.387Z,1.83
2018-03-28T22:50:21.950Z,1.85
2018-03-28T22:52:49.949Z,2.00
2018-03-28T22:55:17.520Z,2.40
2018-03-28T22:57:45.026Z,1.83
2018-03-28T23:00:13.147Z,2.22
2018-03-28T23:02:40.657Z,3.17
2018-03-28T23:05:08.190Z,2.97
2018-03-28T23:07:35.833Z,2.35
2018-03-28T23:10:03.339Z,2.50
2018-03-28T23:12:30.845Z,2.60
2018-03-28T23:14:58.623Z,2.80
2018-03-28T23:17:26.139Z,3.20
2018-03-28T23:19:53.653Z,2.40
2018-03-28T23:22:33.426Z,1.95
2018-03-28T23:25:00.936Z,2.62
2018-03-28T23:27:28.449Z,2.60
2018-03-28T23:29:56.001Z,2.20
2018-03-28T23:32:23.505Z,1.73
2018-03-28T23:34:51.019Z,2.35
2018-03-28T23:37:18.579Z,2.85
2018-03-28T23:39:46.092Z,2.70
2018-03-28T23:42:13.603Z,2.90
2018-03-28T23:44:41.416Z,2.95
2018-03-28T23:47:08.913Z,2.50
2018-03-28T23:49:36.418Z,2.55
2018-03-28T23:52:03.971Z,2.97
2018-03-28T23:54:31.477Z,2.40
2018-03-28T23:56:58.980Z,3.20
2018-03-28T23:59:26.763Z,2.30
